Time;durP1;ratioP1;P1;durP2;ratioP2;P2;SDS_P1;SDS_P2;PMS_P1;PMS_P2;Temp;Humidity;BMP_temperature;BMP_pressure;BME280_temperature;BME280_humidity;BME280_pressure;Samples;Min_cycle;Max_cycle;Signal;HPM_P1;HPM_P2
2022/10/01 00:01:08;;;;;;;;;;;13.80;99.90;;;;;;7335960;19;108877;-86
2022/10/01 00:03:35;;;;;;;;;;;13.80;99.90;;;;;;7336745;19;109593;-84
2022/10/01 00:06:02;;;;;;;;;;;13.80;99.90;;;;;;7336769;19;109343;-84
2022/10/01 00:08:29;;;;;;;;;;;13.80;99.90;;;;;;7328745;19;109050;-88
2022/10/01 00:11:00;;;;;;;;;;;13.80;99.90;;;;;;7333493;19;109565;-85
2022/10/01 00:13:29;;;;;;;;;;;13.80;99.90;;;;;;7333330;19;110460;-86
2022/10/01 00:15:56;;;;;;;;;;;13.80;99.90;;;;;;7334184;19;109082;-87
2022/10/01 00:18:23;;;;;;;;;;;13.80;99.90;;;;;;7336711;19;108964;-82
2022/10/01 00:20:50;;;;;;;;;;;13.80;99.90;;;;;;7333457;19;108492;-84
2022/10/01 00:23:18;;;;;;;;;;;13.80;99.90;;;;;;7331199;19;110348;-81
2022/10/01 00:25:45;;;;;;;;;;;13.80;99.90;;;;;;7333368;19;110607;-84
2022/10/01 00:28:12;;;;;;;;;;;13.70;99.90;;;;;;7332773;19;109274;-82
2022/10/01 00:30:44;;;;;;;;;;;13.70;99.90;;;;;;7333729;19;109715;-81
2022/10/01 00:33:11;;;;;;;;;;;13.70;99.90;;;;;;7333478;19;109757;-83
2022/10/01 00:35:38;;;;;;;;;;;13.70;99.90;;;;;;7334593;19;108977;-83
2022/10/01 00:38:05;;;;;;;;;;;13.70;99.90;;;;;;7334736;19;108953;-81
2022/10/01 00:40:32;;;;;;;;;;;13.80;99.90;;;;;;7333572;19;108879;-80
2022/10/01 00:42:59;;;;;;;;;;;13.90;99.90;;;;;;7327485;19;109535;-80
2022/10/01 00:45:26;;;;;;;;;;;13.90;99.90;;;;;;7330102;19;112574;-80
2022/10/01 00:47:55;;;;;;;;;;;14.00;99.90;;;;;;7328966;19;108962;-80
2022/10/01 00:50:25;;;;;;;;;;;14.00;99.90;;;;;;7330571;19;109402;-81
2022/10/01 00:52:58;;;;;;;;;;;14.00;99.90;;;;;;7330923;19;111417;-80
2022/10/01 00:55:27;;;;;;;;;;;14.00;99.90;;;;;;7337469;19;108894;-81
2022/10/01 00:57:54;;;;;;;;;;;14.00;99.90;;;;;;7340057;19;108288;-82
2022/10/01 01:00:21;;;;;;;;;;;14.00;99.90;;;;;;7343123;19;109545;-80
2022/10/01 01:02:48;;;;;;;;;;;14.10;99.90;;;;;;7337363;19;109670;-83
2022/10/01 01:05:15;;;;;;;;;;;14.10;99.90;;;;;;7337986;19;110141;-78
2022/10/01 01:07:44;;;;;;;;;;;14.10;99.90;;;;;;7340831;19;108822;-79
2022/10/01 01:10:13;;;;;;;;;;;14.10;99.90;;;;;;7337778;19;108780;-81
2022/10/01 01:12:50;;;;;;;;;;;14.10;99.90;;;;;;7334908;19;110423;-82
2022/10/01 01:15:19;;;;;;;;;;;14.10;99.90;;;;;;7337323;19;108534;-80
2022/10/01 01:17:52;;;;;;;;;;;14.10;99.90;;;;;;7339649;19;110094;-80
2022/10/01 01:20:22;;;;;;;;;;;14.10;99.90;;;;;;7338786;19;110130;-82
2022/10/01 01:22:53;;;;;;;;;;;14.10;99.90;;;;;;7343407;19;108501;-80
2022/10/01 01:25:28;;;;;;;;;;;14.10;99.90;;;;;;7336780;19;111413;-83
2022/10/01 01:28:01;;;;;;;;;;;14.10;99.90;;;;;;7338056;19;110537;-80
2022/10/01 01:30:31;;;;;;;;;;;14.10;99.90;;;;;;7336783;19;110774;-82
2022/10/01 01:33:01;;;;;;;;;;;14.20;99.90;;;;;;7337307;19;110568;-82
2022/10/01 01:35:32;;;;;;;;;;;14.20;99.90;;;;;;7338663;19;109101;-81
2022/10/01 01:38:01;;;;;;;;;;;14.20;99.90;;;;;;7335630;19;108838;-79
2022/10/01 01:40:29;;;;;;;;;;;14.20;99.90;;;;;;7333217;19;110513;-79
2022/10/01 01:42:56;;;;;;;;;;;14.20;99.90;;;;;;7337638;19;109312;-82
2022/10/01 01:45:27;;;;;;;;;;;14.20;99.90;;;;;;7341409;19;110128;-81
2022/10/01 01:47:54;;;;;;;;;;;14.20;99.90;;;;;;7337451;19;108943;-81
2022/10/01 01:50:24;;;;;;;;;;;14.10;99.90;;;;;;7333702;19;109639;-79
2022/10/01 01:52:53;;;;;;;;;;;14.10;99.90;;;;;;7339395;19;109340;-80
2022/10/01 01:55:22;;;;;;;;;;;14.10;99.90;;;;;;7336508;19;109004;-81
2022/10/01 01:57:50;;;;;;;;;;;14.20;99.90;;;;;;7335000;19;109406;-82
2022/10/01 02:00:17;;;;;;;;;;;14.20;99.90;;;;;;7335450;19;111058;-81
2022/10/01 02:02:47;;;;;;;;;;;14.20;99.90;;;;;;7336185;19;109195;-83
2022/10/01 02:05:16;;;;;;;;;;;14.10;99.90;;;;;;7335872;19;109588;-80
2022/10/01 02:07:56;;;;;;;;;;;14.10;99.90;;;;;;7343801;19;113627;-82
2022/10/01 02:10:29;;;;;;;;;;;14.10;99.90;;;;;;7335435;19;109714;-79
2022/10/01 02:13:00;;;;;;;;;;;14.10;99.90;;;;;;7337820;19;110303;-82
2022/10/01 02:15:27;;;;;;;;;;;14.10;99.90;;;;;;7334994;19;109905;-82
2022/10/01 02:18:02;;;;;;;;;;;14.20;99.90;;;;;;7337074;19;109799;-83
2022/10/01 02:20:31;;;;;;;;;;;14.20;99.90;;;;;;7335217;19;110489;-82
2022/10/01 02:23:02;;;;;;;;;;;14.10;99.90;;;;;;7335768;19;109024;-83
2022/10/01 02:25:33;;;;;;;;;;;14.10;99.90;;;;;;7335157;19;108616;-83
2022/10/01 02:28:02;;;;;;;;;;;14.10;99.90;;;;;;7334929;19;110933;-81
2022/10/01 02:30:30;;;;;;;;;;;14.10;99.90;;;;;;7339053;19;108754;-85
2022/10/01 02:32:59;;;;;;;;;;;14.10;99.90;;;;;;7335030;19;110505;-82
2022/10/01 02:35:26;;;;;;;;;;;14.10;99.90;;;;;;7332120;19;108475;-80
2022/10/01 02:37:55;;;;;;;;;;;14.10;99.90;;;;;;7337661;19;108834;-85
2022/10/01 02:40:26;;;;;;;;;;;14.10;99.90;;;;;;7332735;19;113580;-81
2022/10/01 02:42:56;;;;;;;;;;;14.10;99.90;;;;;;7336239;19;109542;-84
2022/10/01 02:45:24;;;;;;;;;;;14.10;99.90;;;;;;7336800;19;109380;-81
2022/10/01 02:48:06;;;;;;;;;;;14.10;99.90;;;;;;7336228;19;109783;-86
2022/10/01 02:50:39;;;;;;;;;;;14.10;99.90;;;;;;7342936;19;109453;-84
2022/10/01 02:53:08;;;;;;;;;;;14.10;99.90;;;;;;7337140;19;109871;-83
2022/10/01 02:55:36;;;;;;;;;;;14.10;99.90;;;;;;7335426;19;108788;-85
2022/10/01 02:58:03;;;;;;;;;;;14.10;99.90;;;;;;7335558;19;109788;-84
2022/10/01 03:00:30;;;;;;;;;;;14.10;99.90;;;;;;7332817;19;110516;-83
2022/10/01 03:02:58;;;;;;;;;;;14.10;99.90;;;;;;7336138;19;109921;-83
2022/10/01 03:05:25;;;;;;;;;;;14.20;99.90;;;;;;7335363;19;110183;-82
2022/10/01 03:07:52;;;;;;;;;;;14.20;99.90;;;;;;7336535;19;110245;-83
2022/10/01 03:10:20;;;;;;;;;;;14.20;99.90;;;;;;7334721;19;109066;-82
2022/10/01 03:12:47;;;;;;;;;;;14.20;99.90;;;;;;7341363;19;109279;-83
2022/10/01 03:15:18;;;;;;;;;;;14.20;99.90;;;;;;7334974;19;109413;-85
2022/10/01 03:17:45;;;;;;;;;;;14.20;99.90;;;;;;7333263;19;109928;-83
2022/10/01 03:20:12;;;;;;;;;;;14.30;99.90;;;;;;7334477;19;111401;-81
2022/10/01 03:22:39;;;;;;;;;;;14.30;99.90;;;;;;7336507;19;109447;-83
2022/10/01 03:25:06;;;;;;;;;;;14.30;99.90;;;;;;7333732;19;109135;-84
2022/10/01 03:27:33;;;;;;;;;;;14.30;99.90;;;;;;7336044;19;110533;-84
2022/10/01 03:29:59;;;;;;;;;;;14.30;99.90;;;;;;7334322;19;109120;-83
2022/10/01 03:32:26;;;;;;;;;;;14.20;99.90;;;;;;7331973;19;109355;-85
2022/10/01 03:34:53;;;;;;;;;;;14.30;99.90;;;;;;7337888;19;110109;-81
2022/10/01 03:37:20;;;;;;;;;;;14.30;99.90;;;;;;7332061;19;108935;-82
2022/10/01 03:39:47;;;;;;;;;;;14.30;99.90;;;;;;7332522;19;110703;-84
2022/10/01 03:42:14;;;;;;;;;;;14.20;99.90;;;;;;7334908;19;109070;-83
2022/10/01 03:44:41;;;;;;;;;;;14.30;99.90;;;;;;7331989;19;109636;-82
2022/10/01 03:47:09;;;;;;;;;;;14.30;99.90;;;;;;7333494;19;113789;-84
2022/10/01 03:49:36;;;;;;;;;;;14.30;99.90;;;;;;7334301;19;108311;-82
2022/10/01 03:52:03;;;;;;;;;;;14.30;99.90;;;;;;7332606;19;109168;-84
2022/10/01 03:54:30;;;;;;;;;;;14.30;99.90;;;;;;7333987;19;110287;-81
2022/10/01 03:56:57;;;;;;;;;;;14.30;99.90;;;;;;7340716;19;108566;-85
2022/10/01 03:59:26;;;;;;;;;;;14.20;99.90;;;;;;7332544;19;110560;-82
2022/10/01 04:01:53;;;;;;;;;;;14.30;99.90;;;;;;7334333;19;108908;-82
2022/10/01 04:04:20;;;;;;;;;;;14.30;99.90;;;;;;7331688;19;109839;-85
2022/10/01 04:06:47;;;;;;;;;;;14.30;99.90;;;;;;7332943;19;110425;-82
2022/10/01 04:09:14;;;;;;;;;;;14.30;99.90;;;;;;7332409;19;109208;-81
2022/10/01 04:11:40;;;;;;;;;;;14.40;99.90;;;;;;7336090;19;109358;-84
2022/10/01 04:14:08;;;;;;;;;;;14.30;99.90;;;;;;7331787;19;113488;-82
2022/10/01 04:16:35;;;;;;;;;;;14.30;99.90;;;;;;7331478;19;108894;-84
2022/10/01 04:19:02;;;;;;;;;;;14.30;99.90;;;;;;7337591;19;109544;-84
2022/10/01 04:21:29;;;;;;;;;;;14.40;99.90;;;;;;7333785;19;110497;-83
2022/10/01 04:23:58;;;;;;;;;;;14.40;99.90;;;;;;7332914;19;111632;-86
2022/10/01 04:26:25;;;;;;;;;;;14.40;99.90;;;;;;7330611;19;109705;-83
2022/10/01 04:28:52;;;;;;;;;;;14.40;99.90;;;;;;7336625;19;109630;-84
2022/10/01 04:31:25;;;;;;;;;;;14.40;99.90;;;;;;7338502;19;109359;-86
2022/10/01 04:33:53;;;;;;;;;;;14.40;99.90;;;;;;7339437;19;110326;-85
2022/10/01 04:36:20;;;;;;;;;;;14.50;99.90;;;;;;7337738;19;109655;-84
2022/10/01 04:38:49;;;;;;;;;;;14.50;99.90;;;;;;7340910;19;109697;-84
2022/10/01 04:41:16;;;;;;;;;;;14.50;99.90;;;;;;7341475;19;110373;-83
2022/10/01 04:43:43;;;;;;;;;;;14.50;99.90;;;;;;7340490;19;109258;-83
2022/10/01 04:46:10;;;;;;;;;;;14.60;99.90;;;;;;7336970;19;110339;-86
2022/10/01 04:48:37;;;;;;;;;;;14.60;99.90;;;;;;7339855;19;108715;-86
2022/10/01 04:51:04;;;;;;;;;;;14.60;99.90;;;;;;7338909;19;109187;-82
2022/10/01 04:53:31;;;;;;;;;;;14.70;99.90;;;;;;7339158;19;108886;-86
2022/10/01 04:55:58;;;;;;;;;;;14.70;99.90;;;;;;7338805;19;109675;-83
2022/10/01 04:58:25;;;;;;;;;;;14.70;99.90;;;;;;7337764;19;108359;-86
2022/10/01 05:00:52;;;;;;;;;;;14.70;99.90;;;;;;7344180;19;110344;-84
2022/10/01 05:03:24;;;;;;;;;;;14.70;99.90;;;;;;7338720;19;110863;-86
2022/10/01 05:05:50;;;;;;;;;;;14.80;99.90;;;;;;7340781;19;110410;-86
2022/10/01 05:08:17;;;;;;;;;;;14.80;99.90;;;;;;7337093;19;109465;-84
2022/10/01 05:10:44;;;;;;;;;;;14.80;99.90;;;;;;7340455;19;109589;-86
2022/10/01 05:13:12;;;;;;;;;;;14.90;99.90;;;;;;7337352;19;110649;-85
2022/10/01 05:15:40;;;;;;;;;;;14.90;99.90;;;;;;7340003;19;108824;-83
2022/10/01 05:18:07;;;;;;;;;;;14.90;99.90;;;;;;7338147;19;114846;-85
2022/10/01 05:20:34;;;;;;;;;;;14.90;99.90;;;;;;7339076;19;110079;-87
2022/10/01 05:23:00;;;;;;;;;;;15.00;99.90;;;;;;7345245;19;108494;-87
2022/10/01 05:25:27;;;;;;;;;;;15.00;99.90;;;;;;7334945;19;111316;-85
2022/10/01 05:27:58;;;;;;;;;;;15.00;99.90;;;;;;7336900;19;109947;-86
2022/10/01 05:30:25;;;;;;;;;;;15.00;99.90;;;;;;7333627;19;109376;-82
2022/10/01 05:32:54;;;;;;;;;;;15.00;99.90;;;;;;7336419;19;110553;-85
2022/10/01 05:35:21;;;;;;;;;;;15.00;99.90;;;;;;7338059;19;109866;-85
2022/10/01 05:37:51;;;;;;;;;;;15.10;99.90;;;;;;7337298;19;109630;-87
2022/10/01 05:40:18;;;;;;;;;;;15.10;99.90;;;;;;7335771;19;109620;-84
2022/10/01 05:42:46;;;;;;;;;;;15.10;99.90;;;;;;7339164;19;108684;-83
2022/10/01 05:45:13;;;;;;;;;;;15.10;99.90;;;;;;7341241;19;109301;-86
2022/10/01 05:47:43;;;;;;;;;;;15.10;99.90;;;;;;7338206;19;109449;-85
2022/10/01 05:50:10;;;;;;;;;;;15.10;99.90;;;;;;7337147;19;109717;-87
2022/10/01 05:52:37;;;;;;;;;;;15.10;99.90;;;;;;7339928;19;109670;-83
2022/10/01 05:55:04;;;;;;;;;;;15.10;99.90;;;;;;7338172;19;108542;-86
2022/10/01 05:57:31;;;;;;;;;;;15.10;99.90;;;;;;7338005;19;110025;-89
2022/10/01 05:59:58;;;;;;;;;;;15.10;99.90;;;;;;7335339;19;110240;-86
2022/10/01 06:02:24;;;;;;;;;;;15.20;99.90;;;;;;7334144;19;108662;-85
2022/10/01 06:04:51;;;;;;;;;;;15.20;99.90;;;;;;7334690;19;110595;-84
2022/10/01 06:07:18;;;;;;;;;;;15.20;99.90;;;;;;7340856;19;113451;-84
2022/10/01 06:09:45;;;;;;;;;;;15.20;99.90;;;;;;7332572;19;109287;-85
2022/10/01 06:12:12;;;;;;;;;;;15.20;99.90;;;;;;7336354;19;110626;-84
2022/10/01 06:14:45;;;;;;;;;;;15.20;99.90;;;;;;7337966;19;108397;-83
2022/10/01 06:17:12;;;;;;;;;;;15.20;99.90;;;;;;7336142;19;109276;-84
2022/10/01 06:19:39;;;;;;;;;;;15.20;99.90;;;;;;7337530;19;109888;-84
2022/10/01 06:22:06;;;;;;;;;;;15.20;99.90;;;;;;7336428;19;110323;-85
2022/10/01 06:24:32;;;;;;;;;;;15.20;99.90;;;;;;7338272;19;109288;-81
2022/10/01 06:26:59;;;;;;;;;;;15.20;99.90;;;;;;7335816;19;108738;-83
2022/10/01 06:29:26;;;;;;;;;;;15.30;99.90;;;;;;7340066;19;108840;-85
2022/10/01 06:31:53;;;;;;;;;;;15.30;99.90;;;;;;7335968;19;109814;-85
2022/10/01 06:34:20;;;;;;;;;;;15.30;99.90;;;;;;7334216;19;108701;-85
2022/10/01 06:36:47;;;;;;;;;;;15.20;99.90;;;;;;7338190;19;108561;-85
2022/10/01 06:39:14;;;;;;;;;;;15.30;99.90;;;;;;7335167;19;110342;-89
2022/10/01 06:41:42;;;;;;;;;;;15.30;99.90;;;;;;7334666;19;108558;-85
2022/10/01 06:44:09;;;;;;;;;;;15.30;99.90;;;;;;7336703;19;109219;-89
2022/10/01 06:46:36;;;;;;;;;;;15.30;99.90;;;;;;7337381;19;109621;-84
2022/10/01 06:49:03;;;;;;;;;;;15.40;99.90;;;;;;7337332;19;108501;-85
2022/10/01 06:54:17;;;;;;;;;;;15.40;99.90;;;;;;7336390;19;108989;-84
2022/10/01 06:56:44;;;;;;;;;;;15.40;99.90;;;;;;7336576;19;109696;-85
2022/10/01 06:59:10;;;;;;;;;;;15.50;99.90;;;;;;7333454;19;110378;-85
2022/10/01 07:01:37;;;;;;;;;;;15.50;99.90;;;;;;7334531;19;109151;-85
2022/10/01 07:04:05;;;;;;;;;;;15.60;99.90;;;;;;7332134;19;112019;-85
2022/10/01 07:06:32;;;;;;;;;;;15.60;99.90;;;;;;7335720;19;111412;-86
2022/10/01 07:08:59;;;;;;;;;;;15.60;99.90;;;;;;7336743;19;109555;-87
2022/10/01 07:11:26;;;;;;;;;;;15.60;99.90;;;;;;7339014;19;109485;-85
2022/10/01 07:13:53;;;;;;;;;;;15.70;99.90;;;;;;7333591;19;108851;-87
2022/10/01 07:16:20;;;;;;;;;;;15.70;99.90;;;;;;7333389;19;109799;-84
2022/10/01 07:18:47;;;;;;;;;;;15.70;99.90;;;;;;7336345;19;111314;-84
2022/10/01 07:21:14;;;;;;;;;;;15.70;99.90;;;;;;7333027;19;109125;-84
2022/10/01 07:23:42;;;;;;;;;;;15.80;99.90;;;;;;7332837;19;111068;-84
2022/10/01 07:26:08;;;;;;;;;;;15.80;99.90;;;;;;7334396;19;110445;-86
2022/10/01 07:28:35;;;;;;;;;;;15.80;99.90;;;;;;7330912;19;109689;-84
2022/10/01 07:31:05;;;;;;;;;;;15.80;99.90;;;;;;7330348;19;109974;-84
2022/10/01 07:33:32;;;;;;;;;;;15.80;99.90;;;;;;7339006;19;110165;-84
2022/10/01 07:36:00;;;;;;;;;;;15.80;99.90;;;;;;7335202;19;108509;-86
2022/10/01 07:38:27;;;;;;;;;;;15.80;99.90;;;;;;7333306;19;110502;-85
2022/10/01 07:40:54;;;;;;;;;;;15.90;99.90;;;;;;7333589;19;109002;-84
2022/10/01 07:43:21;;;;;;;;;;;15.90;99.90;;;;;;7328348;19;109594;-85
2022/10/01 07:45:48;;;;;;;;;;;16.00;99.90;;;;;;7330450;19;112973;-86
2022/10/01 07:48:16;;;;;;;;;;;16.10;99.90;;;;;;7332594;19;109165;-89
2022/10/01 07:50:46;;;;;;;;;;;16.10;99.90;;;;;;7336035;19;109422;-83
2022/10/01 07:53:13;;;;;;;;;;;16.10;99.90;;;;;;7331586;19;111337;-88
2022/10/01 07:55:39;;;;;;;;;;;16.20;99.90;;;;;;7337364;19;109114;-87
2022/10/01 07:58:06;;;;;;;;;;;16.20;99.90;;;;;;7333649;19;110292;-88
2022/10/01 08:00:33;;;;;;;;;;;16.30;99.90;;;;;;7335040;19;108752;-87
2022/10/01 08:03:01;;;;;;;;;;;16.30;99.90;;;;;;7335665;19;110766;-87
2022/10/01 08:05:29;;;;;;;;;;;16.40;99.90;;;;;;7332628;19;113979;-83
2022/10/01 08:07:57;;;;;;;;;;;16.40;99.90;;;;;;7332751;19;108873;-88
2022/10/01 08:10:24;;;;;;;;;;;16.50;99.90;;;;;;7335086;19;113049;-87
2022/10/01 08:12:51;;;;;;;;;;;16.50;99.90;;;;;;7336383;19;110406;-89
2022/10/01 08:15:19;;;;;;;;;;;16.60;99.90;;;;;;7331903;19;109046;-89
2022/10/01 08:17:46;;;;;;;;;;;16.70;99.90;;;;;;7339074;19;109855;-86
2022/10/01 08:20:14;;;;;;;;;;;16.80;99.90;;;;;;7334993;19;108755;-88
2022/10/01 08:22:41;;;;;;;;;;;16.80;99.90;;;;;;7337049;19;109897;-87
2022/10/01 08:25:08;;;;;;;;;;;16.90;99.90;;;;;;7331109;19;110680;-87
2022/10/01 08:27:35;;;;;;;;;;;17.00;99.90;;;;;;7333065;19;108652;-85
2022/10/01 08:30:02;;;;;;;;;;;17.00;99.90;;;;;;7332644;19;108699;-88
2022/10/01 08:32:30;;;;;;;;;;;17.10;99.90;;;;;;7332297;19;110373;-88
2022/10/01 08:34:57;;;;;;;;;;;17.10;99.90;;;;;;7332724;19;109166;-88
2022/10/01 08:37:28;;;;;;;;;;;17.20;99.90;;;;;;7335689;19;110987;-87
2022/10/01 08:39:55;;;;;;;;;;;17.20;99.90;;;;;;7339184;19;113522;-88
2022/10/01 08:42:32;;;;;;;;;;;17.20;99.90;;;;;;7332339;19;111227;-87
2022/10/01 08:45:01;;;;;;;;;;;17.40;99.90;;;;;;7332483;19;110607;-85
2022/10/01 08:47:32;;;;;;;;;;;17.40;99.90;;;;;;7334247;19;108769;-88
2022/10/01 08:50:04;;;;;;;;;;;17.50;99.90;;;;;;7334992;19;110073;-88
2022/10/01 08:52:35;;;;;;;;;;;17.60;99.90;;;;;;7333341;19;110536;-85
2022/10/01 08:55:09;;;;;;;;;;;17.60;99.90;;;;;;7337168;19;108643;-83
2022/10/01 08:57:40;;;;;;;;;;;17.70;99.90;;;;;;7331248;19;110348;-87
2022/10/01 09:00:14;;;;;;;;;;;17.70;99.90;;;;;;7332047;19;109704;-84
2022/10/01 09:02:42;;;;;;;;;;;17.60;99.90;;;;;;7338226;19;109058;-85
2022/10/01 09:05:19;;;;;;;;;;;17.70;99.90;;;;;;7333498;19;111754;-86
2022/10/01 09:08:04;;;;;;;;;;;17.70;99.90;;;;;;7334661;19;108783;-83
2022/10/01 09:10:42;;;;;;;;;;;17.90;99.90;;;;;;7330296;19;109381;-86
2022/10/01 09:13:09;;;;;;;;;;;17.90;99.90;;;;;;7331271;19;113022;-86
2022/10/01 09:16:02;;;;;;;;;;;17.90;99.90;;;;;;7338736;19;108582;-84
2022/10/01 09:18:28;;;;;;;;;;;18.00;99.90;;;;;;7342768;19;109641;-86
2022/10/01 09:20:58;;;;;;;;;;;18.10;99.90;;;;;;7343557;19;110270;-82
2022/10/01 09:23:29;;;;;;;;;;;18.20;99.90;;;;;;7347071;19;108699;-84
2022/10/01 09:25:58;;;;;;;;;;;18.20;99.90;;;;;;7340610;19;111235;-82
2022/10/01 09:28:28;;;;;;;;;;;18.10;99.90;;;;;;7340566;19;110042;-83
2022/10/01 09:31:21;;;;;;;;;;;18.10;99.90;;;;;;7338998;19;109441;-84
2022/10/01 09:34:09;;;;;;;;;;;18.10;99.90;;;;;;7347153;19;110000;-84
2022/10/01 09:36:39;;;;;;;;;;;18.10;99.90;;;;;;7346852;19;109033;-84
2022/10/01 09:39:08;;;;;;;;;;;18.10;99.90;;;;;;7348290;19;109372;-85
2022/10/01 09:41:35;;;;;;;;;;;18.10;99.90;;;;;;7349491;19;112989;-84
2022/10/01 09:44:03;;;;;;;;;;;18.10;99.90;;;;;;7348041;19;109261;-83
2022/10/01 09:46:30;;;;;;;;;;;18.10;99.90;;;;;;7351410;19;108832;-84
2022/10/01 09:49:00;;;;;;;;;;;18.10;99.90;;;;;;7347956;19;109473;-85
2022/10/01 09:51:26;;;;;;;;;;;18.20;99.90;;;;;;7346157;19;108546;-85
2022/10/01 09:54:02;;;;;;;;;;;18.30;99.90;;;;;;7346196;19;110051;-83
2022/10/01 09:56:34;;;;;;;;;;;18.40;99.90;;;;;;7345380;19;108458;-83
2022/10/01 09:59:03;;;;;;;;;;;18.50;99.90;;;;;;7344587;19;108429;-85
2022/10/01 10:01:36;;;;;;;;;;;18.60;99.90;;;;;;7341335;19;109074;-86
2022/10/01 10:04:03;;;;;;;;;;;18.60;99.90;;;;;;7344320;19;108525;-74
2022/10/01 10:06:30;;;;;;;;;;;18.60;99.90;;;;;;7336408;19;109970;-74
2022/10/01 10:09:00;;;;;;;;;;;18.70;99.90;;;;;;7341288;19;109203;-74
2022/10/01 10:11:28;;;;;;;;;;;18.70;99.90;;;;;;7332920;19;109310;-74
2022/10/01 10:13:58;;;;;;;;;;;18.90;99.90;;;;;;7338109;19;110770;-75
2022/10/01 10:16:29;;;;;;;;;;;18.90;99.90;;;;;;7338608;19;109172;-74
2022/10/01 10:18:58;;;;;;;;;;;18.90;99.90;;;;;;7339081;19;110339;-74
2022/10/01 10:21:27;;;;;;;;;;;19.00;99.90;;;;;;7335480;19;110567;-73
2022/10/01 10:23:58;;;;;;;;;;;19.00;99.90;;;;;;7337688;19;108614;-75
2022/10/01 10:26:37;;;;;;;;;;;19.10;99.90;;;;;;7337789;19;108877;-75
2022/10/01 10:29:06;;;;;;;;;;;19.10;99.90;;;;;;7335734;19;109955;-74
2022/10/01 10:31:40;;;;;;;;;;;19.00;99.90;;;;;;7343158;19;108942;-73
2022/10/01 10:34:14;;;;;;;;;;;19.00;99.90;;;;;;7335433;19;110200;-75
2022/10/01 10:36:41;;;;;;;;;;;18.90;99.90;;;;;;7337485;19;109261;-74
2022/10/01 10:39:19;;;;;;;;;;;18.90;99.90;;;;;;7333185;19;109049;-74
2022/10/01 10:41:47;;;;;;;;;;;18.80;99.90;;;;;;7324271;19;111165;-74
2022/10/01 10:44:18;;;;;;;;;;;18.80;99.90;;;;;;7334831;19;109508;-75
2022/10/01 10:46:45;;;;;;;;;;;18.70;99.90;;;;;;7336284;19;109376;-73
2022/10/01 10:49:15;;;;;;;;;;;18.70;99.90;;;;;;7333347;19;109267;-74
2022/10/01 10:51:43;;;;;;;;;;;18.60;99.90;;;;;;7335397;19;108622;-74
2022/10/01 10:54:26;;;;;;;;;;;18.50;99.90;;;;;;7340184;19;109289;-74
2022/10/01 10:56:55;;;;;;;;;;;18.40;99.90;;;;;;7337510;19;109014;-74
2022/10/01 10:59:22;;;;;;;;;;;18.20;99.90;;;;;;7338028;19;110625;-74
2022/10/01 11:01:49;;;;;;;;;;;18.40;99.90;;;;;;7335753;19;110316;-74
2022/10/01 11:04:26;;;;;;;;;;;18.30;99.90;;;;;;7334703;19;108384;-74
2022/10/01 11:06:57;;;;;;;;;;;18.30;99.90;;;;;;7333980;19;110291;-74
2022/10/01 11:09:26;;;;;;;;;;;18.50;99.90;;;;;;7335326;19;111157;-75
2022/10/01 11:12:10;;;;;;;;;;;18.60;99.90;;;;;;7334616;19;108944;-74
2022/10/01 11:14:52;;;;;;;;;;;18.70;99.90;;;;;;7340939;19;109788;-74
2022/10/01 11:17:19;;;;;;;;;;;18.90;99.90;;;;;;7334374;19;109381;-75
2022/10/01 11:20:04;;;;;;;;;;;19.00;99.90;;;;;;7337714;19;108593;-74
2022/10/01 11:22:31;;;;;;;;;;;19.00;99.90;;;;;;7333272;19;110216;-74
2022/10/01 11:25:16;;;;;;;;;;;19.20;99.90;;;;;;7334888;19;119957;-74
2022/10/01 11:28:03;;;;;;;;;;;19.30;99.90;;;;;;7338641;19;109194;-74
2022/10/01 11:30:52;;;;;;;;;;;19.40;99.90;;;;;;7332741;19;110368;-74
2022/10/01 11:33:25;;;;;;;;;;;19.60;99.90;;;;;;7333482;19;108714;-74
2022/10/01 11:35:57;;;;;;;;;;;19.70;99.90;;;;;;7336397;19;110824;-74
2022/10/01 11:38:39;;;;;;;;;;;19.80;99.90;;;;;;7338158;19;110403;-75
2022/10/01 11:41:25;;;;;;;;;;;19.90;99.90;;;;;;7335915;19;109321;-74
2022/10/01 11:43:58;;;;;;;;;;;19.90;99.90;;;;;;7335074;19;109304;-74
2022/10/01 11:46:32;;;;;;;;;;;20.00;99.90;;;;;;7333885;19;108480;-75
2022/10/01 11:49:13;;;;;;;;;;;19.90;99.90;;;;;;7335504;19;108590;-74
2022/10/01 11:51:47;;;;;;;;;;;19.90;99.90;;;;;;7335319;19;110290;-74
2022/10/01 11:54:17;;;;;;;;;;;19.90;99.90;;;;;;7336300;19;108434;-74
2022/10/01 11:59:42;;;;;;;;;;;20.20;99.90;;;;;;7335688;19;110197;-74
2022/10/01 12:02:24;;;;;;;;;;;20.20;99.90;;;;;;7336474;19;109860;-74
2022/10/01 12:04:57;;;;;;;;;;;20.20;99.90;;;;;;7334530;19;109238;-74
2022/10/01 12:07:26;;;;;;;;;;;20.10;99.90;;;;;;7334494;19;109142;-74
2022/10/01 12:09:53;;;;;;;;;;;20.10;99.90;;;;;;7335965;19;109213;-74
2022/10/01 12:12:26;;;;;;;;;;;20.10;99.90;;;;;;7334883;19;109577;-74
2022/10/01 12:15:00;;;;;;;;;;;20.20;99.90;;;;;;7333920;19;108773;-74
2022/10/01 12:17:40;;;;;;;;;;;20.10;99.90;;;;;;7333030;19;110880;-74
2022/10/01 12:20:27;;;;;;;;;;;20.10;99.90;;;;;;7332634;19;109965;-74
2022/10/01 12:22:55;;;;;;;;;;;19.90;99.90;;;;;;7335185;19;109315;-74
2022/10/01 12:25:30;;;;;;;;;;;20.00;99.90;;;;;;7338522;19;109698;-73
2022/10/01 12:28:08;;;;;;;;;;;20.10;99.90;;;;;;7333200;19;108954;-74
2022/10/01 12:30:41;;;;;;;;;;;20.40;99.90;;;;;;7334786;19;109466;-73
2022/10/01 12:33:19;;;;;;;;;;;20.50;99.90;;;;;;7332594;19;110310;-75
2022/10/01 12:36:19;;;;;;;;;;;20.60;99.90;;;;;;7334203;19;109427;-74
2022/10/01 12:39:04;;;;;;;;;;;20.60;99.90;;;;;;7331713;19;110146;-74
2022/10/01 12:41:50;;;;;;;;;;;20.60;99.90;;;;;;7325871;19;110387;-74
2022/10/01 12:44:40;;;;;;;;;;;20.80;99.90;;;;;;7328675;19;108908;-74
2022/10/01 12:47:20;;;;;;;;;;;20.90;99.90;;;;;;7321038;19;110641;-74
2022/10/01 12:50:06;;;;;;;;;;;20.90;99.90;;;;;;7330933;19;110286;-74
2022/10/01 12:52:52;;;;;;;;;;;21.10;99.90;;;;;;7335792;19;109304;-74
2022/10/01 12:55:19;;;;;;;;;;;21.30;99.90;;;;;;7333901;19;110170;-74
2022/10/01 12:57:49;;;;;;;;;;;21.40;99.90;;;;;;7334335;19;108942;-74
2022/10/01 13:00:24;;;;;;;;;;;21.50;99.90;;;;;;7333117;19;108792;-74
2022/10/01 13:03:17;;;;;;;;;;;21.50;99.90;;;;;;7333578;19;110377;-74
2022/10/01 13:05:50;;;;;;;;;;;21.60;99.90;;;;;;7337595;19;109727;-74
2022/10/01 13:08:16;;;;;;;;;;;21.60;99.90;;;;;;7336612;19;110401;-74
2022/10/01 13:10:56;;;;;;;;;;;21.60;99.90;;;;;;7335674;19;111240;-74
2022/10/01 13:13:24;;;;;;;;;;;21.60;99.90;;;;;;7340275;19;108831;-73
2022/10/01 13:15:57;;;;;;;;;;;21.80;99.90;;;;;;7339935;19;109603;-74
2022/10/01 13:18:34;;;;;;;;;;;21.80;99.90;;;;;;7338139;19;108708;-75
2022/10/01 13:21:04;;;;;;;;;;;21.90;99.60;;;;;;7340119;19;109391;-74
2022/10/01 13:23:42;;;;;;;;;;;21.80;99.90;;;;;;7339162;19;109202;-74
2022/10/01 13:26:22;;;;;;;;;;;21.90;99.90;;;;;;7337876;19;108282;-74
2022/10/01 13:29:07;;;;;;;;;;;22.10;99.90;;;;;;7339493;19;111771;-74
2022/10/01 13:31:38;;;;;;;;;;;22.20;99.90;;;;;;7337357;19;112559;-74
2022/10/01 13:34:25;;;;;;;;;;;22.40;99.50;;;;;;7343611;19;108558;-74
2022/10/01 13:36:52;;;;;;;;;;;22.40;99.40;;;;;;7339491;19;110190;-74
2022/10/01 13:39:20;;;;;;;;;;;22.60;99.60;;;;;;7337300;19;108391;-74
2022/10/01 13:41:49;;;;;;;;;;;22.50;99.40;;;;;;7337136;19;109832;-74
2022/10/01 13:44:25;;;;;;;;;;;22.50;99.40;;;;;;7335857;19;109188;-74
2022/10/01 13:46:57;;;;;;;;;;;22.40;99.50;;;;;;7336524;19;108915;-74
2022/10/01 13:49:27;;;;;;;;;;;22.30;98.90;;;;;;7332121;19;109456;-74
2022/10/01 13:51:54;;;;;;;;;;;22.20;99.10;;;;;;7337946;19;110481;-74
2022/10/01 13:54:40;;;;;;;;;;;22.00;99.50;;;;;;7337405;19;109237;-74
2022/10/01 13:57:22;;;;;;;;;;;21.80;99.50;;;;;;7345290;19;114078;-74
2022/10/01 14:00:01;;;;;;;;;;;21.60;99.50;;;;;;7338408;19;108662;-74
2022/10/01 14:02:36;;;;;;;;;;;21.40;99.90;;;;;;7336501;19;109286;-74
2022/10/01 14:05:22;;;;;;;;;;;21.30;99.90;;;;;;7337826;19;109877;-74
2022/10/01 14:07:53;;;;;;;;;;;21.20;99.90;;;;;;7337149;19;108516;-75
2022/10/01 14:10:21;;;;;;;;;;;21.30;99.90;;;;;;7335530;19;108909;-73
2022/10/01 14:15:59;;;;;;;;;;;21.60;99.90;;;;;;7339846;19;108702;-74
2022/10/01 14:18:33;;;;;;;;;;;21.70;99.90;;;;;;7337002;19;108778;-74
2022/10/01 14:21:15;;;;;;;;;;;21.90;99.90;;;;;;7342781;19;109352;-74
2022/10/01 14:23:54;;;;;;;;;;;22.10;99.90;;;;;;7339151;19;108641;-74
2022/10/01 14:26:24;;;;;;;;;;;22.10;99.50;;;;;;7336009;19;110853;-74
2022/10/01 14:28:57;;;;;;;;;;;22.20;99.70;;;;;;7336509;19;109038;-74
2022/10/01 14:31:28;;;;;;;;;;;22.30;99.60;;;;;;7335285;19;108983;-74